Time;durP1;ratioP1;P1;durP2;ratioP2;P2;SDS_P1;SDS_P2;PMS_P1;PMS_P2;Temp;Humidity;BMP_temperature;BMP_pressure;BME280_temperature;BME280_humidity;BME280_pressure;Samples;Min_cycle;Max_cycle;Signal;HPM_P1;HPM_P2
2023/04/16 00:01:47;;;;;;;5.78;3.75;;;;;;;11.46;71.24;102136.13;5033282;28;20452;-68
2023/04/16 00:04:13;;;;;;;8.20;4.10;;;;;;;11.65;70.78;102146.50;5037456;28;20101;-69
2023/04/16 00:06:38;;;;;;;7.50;4.00;;;;;;;11.87;69.84;102155.75;5053794;28;20041;-68
2023/04/16 00:09:03;;;;;;;6.10;4.03;;;;;;;11.82;70.04;102154.53;5019863;28;20029;-69
2023/04/16 00:11:29;;;;;;;5.10;3.95;;;;;;;11.64;70.67;102150.22;5032851;28;20116;-69
2023/04/16 00:13:54;;;;;;;9.98;4.22;;;;;;;11.69;70.23;102150.56;5015153;28;20040;-69
2023/04/16 00:16:20;;;;;;;8.25;4.10;;;;;;;11.86;69.84;102155.94;5033429;28;20095;-69
2023/04/16 00:18:45;;;;;;;6.53;3.70;;;;;;;11.64;70.36;102146.69;5032895;28;20108;-69
2023/04/16 00:21:11;;;;;;;6.70;3.92;;;;;;;11.76;70.22;102150.69;5031544;28;20040;-68
2023/04/16 00:23:37;;;;;;;10.50;3.90;;;;;;;11.75;70.14;102157.97;5031548;28;20099;-69
2023/04/16 00:26:02;;;;;;;6.68;3.92;;;;;;;11.73;70.32;102148.34;5031925;28;20472;-69
2023/04/16 00:28:28;;;;;;;9.50;4.03;;;;;;;11.65;70.45;102156.44;5033243;28;20027;-69
2023/04/16 00:30:54;;;;;;;6.38;3.97;;;;;;;11.69;70.24;102155.94;5031502;28;20034;-68
2023/04/16 00:33:20;;;;;;;6.40;4.00;;;;;;;11.55;70.88;102145.84;5031131;28;20041;-69
2023/04/16 00:35:46;;;;;;;7.05;4.03;;;;;;;11.54;70.99;102149.56;5019974;28;20049;-68
2023/04/16 00:38:12;;;;;;;8.40;3.92;;;;;;;11.39;71.37;102137.81;5034254;28;20579;-68
2023/04/16 00:40:38;;;;;;;6.47;3.63;;;;;;;11.18;72.46;102149.13;5032156;28;20040;-68
2023/04/16 00:43:03;;;;;;;5.45;4.00;;;;;;;11.54;71.17;102154.97;5030154;28;20029;-70
2023/04/16 00:45:29;;;;;;;5.70;4.00;;;;;;;11.38;71.68;102158.53;5030804;28;20112;-69
2023/04/16 00:47:55;;;;;;;6.05;4.15;;;;;;;11.26;72.60;102157.22;5030397;28;20422;-68
2023/04/16 00:50:21;;;;;;;8.02;3.90;;;;;;;11.34;72.37;102145.59;5030876;28;20052;-68
2023/04/16 00:52:48;;;;;;;5.78;3.95;;;;;;;11.00;73.34;102135.88;5030949;28;20393;-68
2023/04/16 00:55:14;;;;;;;6.88;3.95;;;;;;;11.25;72.75;102153.66;5030671;28;20025;-69
2023/04/16 00:57:40;;;;;;;6.68;3.80;;;;;;;11.00;73.45;102162.81;5031774;28;20110;-69
2023/04/16 01:00:06;;;;;;;7.60;4.32;;;;;;;11.08;73.39;102165.47;5031697;28;20060;-68
2023/04/16 01:02:33;;;;;;;5.20;3.90;;;;;;;11.23;72.59;102166.47;5029863;28;20029;-68
2023/04/16 01:05:00;;;;;;;6.05;3.92;;;;;;;11.45;71.24;102162.22;5031501;28;20040;-69
2023/04/16 01:07:25;;;;;;;6.68;4.40;;;;;;;11.23;71.72;102154.88;5030745;28;20108;-68
2023/04/16 01:09:50;;;;;;;4.45;3.78;;;;;;;11.05;72.70;102158.56;5031561;28;20518;-69
2023/04/16 01:12:16;;;;;;;5.43;4.45;;;;;;;11.15;72.44;102171.88;5030067;28;20557;-68
2023/04/16 01:14:41;;;;;;;8.85;4.28;;;;;;;11.20;72.23;102168.69;5031955;28;20041;-68
2023/04/16 01:17:07;;;;;;;5.22;4.13;;;;;;;10.98;72.44;102165.66;5013725;28;20040;-69
2023/04/16 01:19:35;;;;;;;6.00;3.88;;;;;;;11.11;72.22;102175.91;5045715;28;20053;-68
2023/04/16 01:22:01;;;;;;;10.45;4.50;;;;;;;11.15;71.87;102174.56;5029223;28;20072;-68
2023/04/16 01:24:27;;;;;;;6.15;4.20;;;;;;;11.23;71.27;102181.81;5031854;28;20025;-69
2023/04/16 01:26:52;;;;;;;6.50;4.00;;;;;;;11.34;70.07;102149.13;5030062;28;20048;-69
2023/04/16 01:29:18;;;;;;;8.48;4.13;;;;;;;11.36;70.43;102171.34;5030483;28;20037;-69
2023/04/16 01:31:45;;;;;;;6.65;4.00;;;;;;;10.90;72.13;102156.75;5029947;28;20049;-68
2023/04/16 01:34:10;;;;;;;5.85;4.03;;;;;;;11.14;71.70;102180.13;5014605;28;20128;-69
2023/04/16 01:36:36;;;;;;;6.53;4.10;;;;;;;11.22;70.84;102177.41;5031325;28;20045;-69
2023/04/16 01:39:02;;;;;;;5.45;3.92;;;;;;;11.22;70.73;102175.56;5031446;28;20029;-69
2023/04/16 01:41:27;;;;;;;7.60;4.00;;;;;;;11.10;71.53;102179.63;5030162;28;20491;-69
2023/04/16 01:43:52;;;;;;;8.95;4.38;;;;;;;11.01;71.62;102180.63;5037981;28;20048;-69
2023/04/16 01:46:26;;;;;;;11.30;4.57;;;;;;;11.12;71.30;102174.91;5031148;28;20038;-68
2023/04/16 01:48:53;;;;;;;5.80;3.85;;;;;;;11.00;71.02;102176.25;5029728;28;20026;-68
2023/04/16 01:51:19;;;;;;;6.03;3.95;;;;;;;10.99;71.75;102193.41;5013615;28;20045;-69
2023/04/16 01:53:44;;;;;;;5.07;3.95;;;;;;;10.81;72.01;102183.66;5029093;28;20039;-69
2023/04/16 01:56:10;;;;;;;7.07;4.03;;;;;;;11.00;70.77;102179.78;5013986;28;20488;-69
2023/04/16 01:58:35;;;;;;;6.68;3.88;;;;;;;10.73;72.04;102189.03;5035023;28;20017;-68
2023/04/16 02:01:01;;;;;;;7.70;3.92;;;;;;;10.61;72.73;102193.03;5035456;28;20374;-69
2023/04/16 02:03:26;;;;;;;7.75;4.07;;;;;;;10.57;72.36;102173.69;5017504;28;20037;-68
2023/04/16 02:05:52;;;;;;;9.18;4.65;;;;;;;10.68;72.39;102191.38;5034365;28;20128;-69
2023/04/16 02:08:17;;;;;;;6.18;4.30;;;;;;;10.63;72.41;102185.66;5035301;28;20060;-69
2023/04/16 02:10:46;;;;;;;5.70;4.32;;;;;;;10.51;72.57;102171.66;5033628;28;20091;-69
2023/04/16 02:13:11;;;;;;;8.10;4.43;;;;;;;10.51;72.93;102189.66;5034204;28;20033;-69
2023/04/16 02:15:37;;;;;;;8.02;4.00;;;;;;;10.56;72.41;102187.31;5034799;28;20080;-69
2023/04/16 02:18:02;;;;;;;6.22;4.10;;;;;;;10.35;72.49;102185.91;5034820;28;20029;-69
2023/04/16 02:20:28;;;;;;;5.47;4.05;;;;;;;10.63;72.14;102187.47;5033241;28;20057;-69
2023/04/16 02:22:53;;;;;;;8.30;4.45;;;;;;;10.75;70.86;102191.56;5033533;28;20141;-68
2023/04/16 02:25:18;;;;;;;6.90;4.40;;;;;;;10.53;71.65;102187.66;5033569;28;20072;-68
2023/04/16 02:27:44;;;;;;;5.95;4.00;;;;;;;10.41;71.28;102172.81;5034058;28;20140;-69
2023/04/16 02:30:10;;;;;;;5.82;4.00;;;;;;;10.59;70.81;102186.97;5033369;28;20030;-69
2023/04/16 02:32:35;;;;;;;6.85;4.45;;;;;;;10.34;71.57;102178.84;5017446;28;20036;-69
2023/04/16 02:35:02;;;;;;;7.72;4.30;;;;;;;10.68;70.38;102191.38;5035904;28;20192;-69
2023/04/16 02:37:28;;;;;;;5.95;4.00;;;;;;;10.70;70.23;102185.84;5036572;28;20021;-68
2023/04/16 02:39:54;;;;;;;8.07;4.53;;;;;;;10.69;69.74;102193.03;5034858;28;20029;-68
2023/04/16 02:42:19;;;;;;;8.68;4.45;;;;;;;10.56;69.96;102185.47;5033168;28;20025;-69
2023/04/16 02:44:44;;;;;;;7.43;4.53;;;;;;;10.64;69.75;102190.03;5034367;28;20105;-69
2023/04/16 02:47:10;;;;;;;9.88;4.90;;;;;;;10.64;69.31;102181.13;5032834;28;20037;-69
2023/04/16 02:49:35;;;;;;;8.02;4.40;;;;;;;10.67;69.36;102189.69;5048930;28;20492;-69
2023/04/16 02:52:01;;;;;;;6.00;3.95;;;;;;;10.69;69.35;102193.03;5033441;28;20125;-69
2023/04/16 02:54:26;;;;;;;6.75;4.30;;;;;;;10.38;69.62;102175.84;5032288;28;20180;-68
2023/04/16 02:56:51;;;;;;;5.80;4.30;;;;;;;10.42;70.27;102193.34;5032696;28;20080;-69
2023/04/16 02:59:17;;;;;;;8.23;4.38;;;;;;;10.28;70.06;102201.03;5016223;28;20029;-69
2023/04/16 03:01:42;;;;;;;9.57;4.13;;;;;;;10.43;69.75;102200.38;5034432;28;20025;-69
2023/04/16 03:04:08;;;;;;;7.50;4.78;;;;;;;10.40;69.29;102198.03;5032502;28;20038;-69
2023/04/16 03:06:33;;;;;;;8.00;4.65;;;;;;;10.33;69.37;102196.00;5033925;28;20412;-69
2023/04/16 03:08:59;;;;;;;5.68;4.25;;;;;;;10.19;69.39;102190.38;5032942;28;20392;-68
2023/04/16 03:11:24;;;;;;;9.63;4.03;;;;;;;9.89;70.46;102196.13;5016568;28;20056;-69
2023/04/16 03:13:49;;;;;;;7.65;4.20;;;;;;;10.07;69.86;102187.16;5016860;28;20052;-69
2023/04/16 03:16:15;;;;;;;5.03;4.03;;;;;;;9.96;69.65;102185.56;5032766;28;20033;-68
2023/04/16 03:18:40;;;;;;;7.63;3.60;;;;;;;10.03;69.14;102191.13;5033957;28;20064;-69
2023/04/16 03:21:06;;;;;;;6.20;4.22;;;;;;;9.84;69.37;102193.09;5034470;28;20037;-69
2023/04/16 03:23:31;;;;;;;5.07;3.67;;;;;;;9.98;69.25;102190.81;5016168;28;20082;-69
2023/04/16 03:25:56;;;;;;;6.28;4.00;;;;;;;9.73;69.09;102169.16;5034058;28;20025;-68
2023/04/16 03:28:22;;;;;;;6.95;3.92;;;;;;;9.53;70.28;102189.19;5032859;28;20055;-68
2023/04/16 03:30:53;;;;;;;8.10;4.00;;;;;;;9.56;70.01;102191.56;5032728;28;20047;-68
2023/04/16 03:33:19;;;;;;;8.25;4.38;;;;;;;9.61;69.46;102181.19;5033579;28;20495;-69
2023/04/16 03:35:45;;;;;;;9.13;4.03;;;;;;;9.46;69.65;102161.28;5032587;28;20033;-68
2023/04/16 03:38:11;;;;;;;6.95;3.50;;;;;;;9.66;69.00;102192.28;5032776;28;20025;-68
2023/04/16 03:40:36;;;;;;;7.95;4.00;;;;;;;9.67;68.86;102199.38;5034139;28;20499;-68
2023/04/16 03:43:01;;;;;;;5.97;3.60;;;;;;;9.83;67.73;102177.09;5032691;28;20026;-69
2023/04/16 03:45:27;;;;;;;6.05;3.90;;;;;;;10.08;67.06;102194.19;5032425;28;20030;-69
2023/04/16 03:47:52;;;;;;;5.30;3.78;;;;;;;10.23;66.24;102197.97;5033694;28;20029;-69
2023/04/16 03:50:18;;;;;;;5.95;3.50;;;;;;;9.94;66.64;102184.91;5034483;28;20030;-69
2023/04/16 03:52:45;;;;;;;6.85;3.70;;;;;;;9.99;67.16;102208.59;5033736;28;20099;-69
2023/04/16 03:55:11;;;;;;;4.68;3.28;;;;;;;10.19;66.42;102207.34;5047043;28;20021;-68
2023/04/16 03:57:37;;;;;;;4.25;3.58;;;;;;;10.20;65.98;102209.06;5044670;28;20132;-69
2023/04/16 04:00:03;;;;;;;7.47;3.90;;;;;;;10.25;66.29;102212.09;5049465;28;20049;-69
2023/04/16 04:02:29;;;;;;;6.65;3.60;;;;;;;10.28;65.60;102209.09;5031949;28;20037;-69
2023/04/16 04:04:54;;;;;;;5.82;3.75;;;;;;;10.32;65.42;102206.94;5032574;28;20570;-69
2023/04/16 04:07:19;;;;;;;4.57;3.70;;;;;;;10.27;64.95;102204.72;5032216;28;20029;-69
2023/04/16 04:09:45;;;;;;;6.45;3.65;;;;;;;10.10;65.54;102202.97;5032202;28;20257;-69
2023/04/16 04:12:10;;;;;;;8.38;3.50;;;;;;;9.94;66.57;102208.25;5032178;28;20034;-69
2023/04/16 04:14:38;;;;;;;10.73;4.45;;;;;;;10.01;65.56;102187.78;5033129;28;20029;-68
2023/04/16 04:17:04;;;;;;;7.10;3.83;;;;;;;9.99;66.08;102213.97;5015627;28;20072;-68
2023/04/16 04:19:30;;;;;;;4.88;3.38;;;;;;;10.01;65.94;102206.63;5032727;28;20056;-68
2023/04/16 04:21:55;;;;;;;5.72;3.67;;;;;;;9.89;66.01;102212.25;5015123;28;20431;-68
2023/04/16 04:24:20;;;;;;;6.38;3.80;;;;;;;9.74;66.99;102205.81;5032290;28;20037;-69
2023/04/16 04:26:46;;;;;;;10.85;3.80;;;;;;;9.98;66.02;102215.00;5031720;28;20500;-69
2023/04/16 04:29:12;;;;;;;8.30;3.78;;;;;;;9.82;66.13;102205.84;5031710;28;20044;-68
2023/04/16 04:31:37;;;;;;;6.20;3.17;;;;;;;9.87;66.41;102214.28;5032706;28;20400;-69
2023/04/16 04:34:03;;;;;;;5.53;3.70;;;;;;;9.88;66.08;102210.56;5032410;28;20049;-69
2023/04/16 04:36:28;;;;;;;7.05;3.50;;;;;;;9.91;65.42;102220.19;5035266;28;20069;-68
2023/04/16 04:38:54;;;;;;;4.55;3.33;;;;;;;10.07;65.34;102200.59;5043189;28;20030;-69
2023/04/16 04:41:20;;;;;;;6.25;3.42;;;;;;;9.85;65.69;102212.75;5031721;28;20087;-68
2023/04/16 04:43:46;;;;;;;4.28;3.53;;;;;;;10.07;65.42;102208.66;5033570;28;20037;-69
2023/04/16 04:46:11;;;;;;;7.50;3.72;;;;;;;10.12;64.61;102199.09;5015669;28;20392;-69
2023/04/16 04:48:36;;;;;;;6.40;3.80;;;;;;;10.21;64.34;102209.88;5015202;28;20137;-69
2023/04/16 04:51:03;;;;;;;6.00;3.70;;;;;;;10.11;64.03;102200.09;5032905;28;20025;-69
2023/04/16 04:53:28;;;;;;;7.53;4.00;;;;;;;10.24;64.13;102221.16;5031590;28;20080;-69
2023/04/16 04:55:54;;;;;;;5.80;4.00;;;;;;;10.38;64.07;102222.41;5032779;28;20029;-69
2023/04/16 04:58:19;;;;;;;4.35;3.13;;;;;;;10.47;63.55;102220.63;5031401;28;20029;-69
2023/04/16 05:00:45;;;;;;;5.88;3.53;;;;;;;10.27;63.31;102215.50;5032318;28;20029;-69
2023/04/16 05:03:11;;;;;;;5.43;3.45;;;;;;;10.38;63.20;102219.72;5031049;28;20093;-69
2023/04/16 05:05:40;;;;;;;5.43;3.90;;;;;;;10.39;63.42;102225.94;5032681;28;20056;-69
2023/04/16 05:08:06;;;;;;;5.55;3.40;;;;;;;10.48;63.08;102227.66;5015044;28;20101;-69
2023/04/16 05:10:31;;;;;;;5.78;4.07;;;;;;;10.50;62.71;102218.44;5032487;28;20049;-69
2023/04/16 05:12:56;;;;;;;6.65;3.70;;;;;;;10.60;62.24;102230.91;5032107;28;20037;-69
2023/04/16 05:15:22;;;;;;;6.28;3.65;;;;;;;10.35;62.88;102228.97;5030654;28;20040;-69
2023/04/16 05:17:47;;;;;;;8.05;3.50;;;;;;;10.41;62.98;102223.94;5014498;28;20078;-69
2023/04/16 05:20:13;;;;;;;7.43;3.45;;;;;;;10.25;62.91;102189.72;5047745;28;20053;-69
2023/04/16 05:22:38;;;;;;;6.25;3.65;;;;;;;10.35;63.07;102223.59;5032629;28;20524;-69
2023/04/16 05:25:04;;;;;;;6.88;3.60;;;;;;;10.47;62.66;102228.69;5032070;28;20112;-69
2023/04/16 05:27:29;;;;;;;6.13;3.40;;;;;;;10.53;62.11;102236.09;5031364;28;20431;-69
2023/04/16 05:29:55;;;;;;;4.57;3.50;;;;;;;10.38;62.23;102216.19;5030439;28;20040;-69
2023/04/16 05:32:20;;;;;;;6.60;3.30;;;;;;;10.44;62.05;102237.09;5033153;28;20057;-69
2023/04/16 05:34:46;;;;;;;4.50;3.50;;;;;;;10.48;62.30;102233.88;5041170;28;20037;-69
2023/04/16 05:37:11;;;;;;;5.03;3.58;;;;;;;10.56;62.16;102233.94;5025502;28;20119;-69
2023/04/16 05:39:36;;;;;;;5.28;3.45;;;;;;;10.65;61.73;102233.94;5033254;28;20071;-69
2023/04/16 05:42:02;;;;;;;5.88;3.25;;;;;;;10.40;62.61;102233.00;5014829;28;20345;-68
2023/04/16 05:44:27;;;;;;;6.43;3.40;;;;;;;10.48;61.58;102241.13;5032551;28;20112;-69
2023/04/16 05:46:53;;;;;;;5.30;3.13;;;;;;;10.60;61.10;102245.22;5030564;28;20041;-69
2023/04/16 05:49:19;;;;;;;6.18;3.45;;;;;;;10.33;61.98;102240.88;5032381;28;20037;-69
2023/04/16 05:51:44;;;;;;;6.50;3.13;;;;;;;10.52;61.34;102239.78;5014313;28;20033;-69
2023/04/16 05:54:10;;;;;;;4.95;2.85;;;;;;;10.06;61.77;102241.91;5013935;28;20060;-70
2023/04/16 05:56:35;;;;;;;6.68;3.50;;;;;;;9.97;62.50;102235.66;5030629;28;20353;-69
2023/04/16 05:59:00;;;;;;;6.35;3.35;;;;;;;10.20;62.31;102246.72;5031049;28;20034;-69
2023/04/16 06:01:26;;;;;;;5.25;3.22;;;;;;;10.28;61.43;102219.88;5031731;28;20042;-68
2023/04/16 06:03:51;;;;;;;7.15;3.00;;;;;;;10.20;60.84;102243.16;5030466;28;20040;-69
2023/04/16 06:06:17;;;;;;;4.57;3.35;;;;;;;10.69;60.70;102249.59;5030573;28;20432;-68
2023/04/16 06:08:42;;;;;;;6.82;3.20;;;;;;;10.40;60.77;102241.06;5030664;28;20127;-71
2023/04/16 06:11:07;;;;;;;4.68;2.80;;;;;;;10.32;61.63;102253.50;5030151;28;20025;-70
2023/04/16 06:13:33;;;;;;;5.28;3.15;;;;;;;10.15;61.60;102249.03;5031081;28;20112;-70
2023/04/16 06:15:58;;;;;;;6.07;3.40;;;;;;;10.28;60.39;102248.63;5039735;28;20028;-69
2023/04/16 06:18:24;;;;;;;4.53;3.05;;;;;;;10.63;60.18;102255.66;5049972;28;20033;-70
2023/04/16 06:20:49;;;;;;;6.03;3.20;;;;;;;10.46;59.88;102251.19;5017227;28;20430;-69
2023/04/16 06:23:15;;;;;;;4.18;3.08;;;;;;;10.39;60.20;102229.47;5016909;28;20039;-70
2023/04/16 06:25:40;;;;;;;5.05;3.05;;;;;;;10.36;60.54;102251.31;5032660;28;20480;-70
2023/04/16 06:28:05;;;;;;;7.35;3.25;;;;;;;10.34;60.59;102259.56;5016677;28;20029;-70
2023/04/16 06:30:31;;;;;;;7.03;3.33;;;;;;;10.64;59.46;102260.00;5052039;28;20025;-70
2023/04/16 06:32:57;;;;;;;6.03;3.15;;;;;;;10.96;59.20;102266.47;5051543;28;20040;-70
2023/04/16 06:35:22;;;;;;;5.95;3.10;;;;;;;10.87;58.51;102245.94;5052443;28;20017;-69
2023/04/16 06:37:48;;;;;;;5.60;3.03;;;;;;;10.73;58.72;102267.13;5039278;28;20041;-69
2023/04/16 06:40:13;;;;;;;6.75;3.03;;;;;;;10.70;58.95;102266.59;5052371;28;20052;-70
2023/04/16 06:42:39;;;;;;;6.47;3.28;;;;;;;10.79;58.89;102262.91;5052802;28;20032;-69
2023/04/16 06:45:05;;;;;;;5.75;2.92;;;;;;;10.65;59.15;102267.06;5055893;28;20377;-69
2023/04/16 06:47:30;;;;;;;5.80;3.28;;;;;;;10.55;59.66;102252.91;5054254;28;20037;-69
2023/04/16 06:49:55;;;;;;;7.15;3.70;;;;;;;10.40;59.77;102262.59;5037811;28;20148;-69
2023/04/16 06:52:21;;;;;;;4.43;3.03;;;;;;;10.63;59.10;102241.31;5055807;28;20017;-69
2023/04/16 06:54:47;;;;;;;5.05;2.95;;;;;;;10.52;58.94;102251.38;5052837;28;20401;-70
2023/04/16 06:57:12;;;;;;;4.85;3.00;;;;;;;10.61;59.46;102270.28;5052183;28;20029;-69
2023/04/16 06:59:38;;;;;;;7.20;3.55;;;;;;;10.72;59.11;102276.19;5053213;28;20021;-69
2023/04/16 07:02:03;;;;;;;7.28;2.92;;;;;;;10.98;58.93;102278.75;5051835;28;20039;-69
2023/04/16 07:04:29;;;;;;;7.85;3.15;;;;;;;10.79;59.13;102250.31;5053520;28;20021;-69
2023/04/16 07:06:54;;;;;;;4.85;3.20;;;;;;;10.95;58.42;102279.09;5053061;28;20021;-69
2023/04/16 07:09:20;;;;;;;4.60;3.10;;;;;;;10.98;58.42;102281.47;5053429;28;20492;-69
2023/04/16 07:11:45;;;;;;;6.13;3.15;;;;;;;11.17;57.68;102283.00;5055710;28;20032;-69
2023/04/16 07:14:11;;;;;;;6.22;3.20;;;;;;;11.05;57.26;102285.16;5055982;28;20079;-69
2023/04/16 07:16:36;;;;;;;7.68;3.67;;;;;;;11.21;57.53;102280.81;5052729;28;20040;-70
2023/04/16 07:19:02;;;;;;;7.03;3.58;;;;;;;11.21;57.69;102278.97;5053650;28;20060;-69
2023/04/16 07:21:27;;;;;;;4.68;3.10;;;;;;;11.05;57.18;102282.47;5055065;28;20032;-70
2023/04/16 07:23:53;;;;;;;6.45;3.25;;;;;;;11.04;57.33;102280.81;5055023;28;20033;-70
2023/04/16 07:26:18;;;;;;;5.55;3.45;;;;;;;11.05;57.45;102284.34;5053997;28;20049;-69
2023/04/16 07:28:44;;;;;;;12.55;3.55;;;;;;;11.14;57.63;102280.66;5054778;28;20033;-70
2023/04/16 07:31:09;;;;;;;4.35;2.97;;;;;;;11.02;57.38;102280.13;5053877;28;20033;-69
2023/04/16 07:33:35;;;;;;;7.88;3.40;;;;;;;11.38;56.76;102282.50;5055113;28;20096;-69
2023/04/16 07:36:00;;;;;;;7.57;3.50;;;;;;;11.31;57.00;102286.06;5056308;28;20545;-69
2023/04/16 07:38:26;;;;;;;8.52;3.20;;;;;;;11.48;57.08;102285.03;5051331;28;20033;-70
2023/04/16 07:40:51;;;;;;;6.03;3.33;;;;;;;11.35;56.97;102257.75;5071239;28;20062;-69
2023/04/16 07:43:17;;;;;;;5.43;2.97;;;;;;;11.75;56.94;102282.00;5058411;28;20032;-69
2023/04/16 07:45:42;;;;;;;6.43;3.28;;;;;;;11.60;57.49;102293.63;5058901;28;20032;-70
2023/04/16 07:48:07;;;;;;;5.47;3.20;;;;;;;11.64;57.35;102290.41;5054535;28;20167;-69
2023/04/16 07:50:33;;;;;;;5.97;3.03;;;;;;;11.76;57.33;102293.63;5036852;28;20119;-69
2023/04/16 07:52:58;;;;;;;7.15;3.80;;;;;;;12.00;56.99;102287.38;5054233;28;20052;-70
2023/04/16 07:55:24;;;;;;;5.13;3.03;;;;;;;11.90;56.71;102287.56;5055660;28;20071;-69
2023/04/16 07:57:49;;;;;;;6.47;3.35;;;;;;;11.81;57.03;102272.38;5055080;28;20032;-69
2023/04/16 08:00:15;;;;;;;5.55;3.47;;;;;;;12.05;57.09;102295.78;5038042;28;20037;-69
2023/04/16 08:02:40;;;;;;;6.50;3.50;;;;;;;11.95;56.91;102293.28;5051475;28;20028;-69
2023/04/16 08:05:06;;;;;;;7.72;3.38;;;;;;;12.04;56.31;102302.19;5055146;28;20502;-68
2023/04/16 08:07:32;;;;;;;6.47;3.45;;;;;;;12.25;56.30;102298.97;5054102;28;20039;-70
2023/04/16 08:09:57;;;;;;;7.88;3.50;;;;;;;12.44;55.78;102303.09;5052466;28;20051;-69
2023/04/16 08:12:23;;;;;;;4.72;3.33;;;;;;;12.40;55.76;102299.91;5052247;28;20105;-69
2023/04/16 08:14:48;;;;;;;7.18;3.65;;;;;;;12.38;55.38;102284.88;5053751;28;20498;-69
2023/04/16 08:17:14;;;;;;;5.88;3.25;;;;;;;12.79;54.80;102311.72;5053588;28;20425;-70
2023/04/16 08:19:39;;;;;;;5.82;3.25;;;;;;;13.16;54.65;102306.41;5053483;28;20053;-69
2023/04/16 08:22:05;;;;;;;7.22;3.17;;;;;;;13.18;54.47;102314.34;5034954;28;20029;-69
2023/04/16 08:24:30;;;;;;;6.43;3.58;;;;;;;12.93;54.50;102314.50;5052406;28;20033;-70
2023/04/16 08:26:56;;;;;;;6.18;3.10;;;;;;;12.70;55.16;102319.84;5052396;28;20033;-69
2023/04/16 08:29:25;;;;;;;6.28;3.55;;;;;;;12.38;55.92;102319.97;5057363;28;20013;-70
2023/04/16 08:31:50;;;;;;;6.80;3.55;;;;;;;12.61;56.04;102326.28;5071555;28;20045;-70
2023/04/16 08:34:16;;;;;;;5.35;3.42;;;;;;;12.75;55.58;102321.16;5054136;28;20039;-70
2023/04/16 08:36:41;;;;;;;5.50;3.25;;;;;;;12.98;55.32;102327.50;5064088;28;20032;-70
2023/04/16 08:39:07;;;;;;;5.85;3.35;;;;;;;13.11;55.06;102332.28;5069661;28;20047;-70
2023/04/16 08:41:35;;;;;;;5.10;3.40;;;;;;;13.15;55.08;102323.66;5053888;28;20028;-70
2023/04/16 08:44:07;;;;;;;5.68;3.70;;;;;;;12.96;56.18;102310.59;5052675;28;20106;-70
2023/04/16 08:46:36;;;;;;;6.68;3.20;;;;;;;13.12;56.85;102331.28;5052352;28;20040;-70
2023/04/16 08:49:07;;;;;;;7.35;3.70;;;;;;;13.02;56.30;102312.59;5053419;28;20369;-70
2023/04/16 08:51:37;;;;;;;3.95;3.20;;;;;;;13.10;55.72;102336.00;5051855;28;20025;-70
2023/04/16 08:54:07;;;;;;;4.82;3.58;;;;;;;13.35;55.21;102340.28;5052057;28;20503;-70
2023/04/16 08:56:35;;;;;;;6.88;3.53;;;;;;;13.30;55.91;102337.25;5050917;28;20017;-70
2023/04/16 08:59:04;;;;;;;5.78;3.80;;;;;;;13.31;56.38;102338.09;5051770;28;20061;-70
2023/04/16 09:01:31;;;;;;;6.80;3.63;;;;;;;13.16;56.92;102341.53;5052281;28;20038;-70
2023/04/16 09:03:57;;;;;;;7.20;3.47;;;;;;;13.08;57.34;102325.41;5052762;28;20029;-70
2023/04/16 09:06:23;;;;;;;6.60;3.60;;;;;;;13.07;57.18;102331.81;5052133;28;20040;-70
2023/04/16 09:08:49;;;;;;;5.75;3.25;;;;;;;13.16;57.34;102346.94;5052365;28;20445;-71
2023/04/16 09:11:18;;;;;;;5.50;3.60;;;;;;;13.33;56.67;102342.31;5052259;28;20037;-71
2023/04/16 09:13:45;;;;;;;4.85;3.40;;;;;;;13.34;57.01;102345.84;5052596;28;20020;-70
2023/04/16 09:16:11;;;;;;;7.25;3.17;;;;;;;13.29;57.40;102351.81;5051774;28;20028;-70
2023/04/16 09:18:37;;;;;;;6.43;3.60;;;;;;;13.19;57.25;102345.75;5052708;28;20111;-70
2023/04/16 09:21:03;;;;;;;6.03;3.67;;;;;;;13.06;57.13;102351.75;5051150;28;20162;-71
2023/04/16 09:23:29;;;;;;;7.32;3.80;;;;;;;13.11;57.29;102345.78;5051371;28;20033;-71
2023/04/16 09:25:57;;;;;;;5.38;3.60;;;;;;;12.95;57.52;102352.16;5052054;28;20531;-70
2023/04/16 09:28:39;;;;;;;5.18;3.40;;;;;;;12.80;57.58;102330.44;5052114;28;20039;-71
2023/04/16 09:31:23;;;;;;;8.73;3.22;;;;;;;13.04;57.75;102351.06;5052258;28;20025;-70
2023/04/16 09:34:06;;;;;;;6.32;3.50;;;;;;;12.86;57.83;102345.09;5051037;28;20040;-71
2023/04/16 09:36:33;;;;;;;5.18;3.30;;;;;;;12.86;57.77;102340.53;5067745;28;20039;-71
2023/04/16 09:38:59;;;;;;;5.10;3.40;;;;;;;12.96;57.63;102356.53;5051586;28;20021;-70
2023/04/16 09:41:30;;;;;;;7.10;3.53;;;;;;;13.01;57.83;102356.81;5052934;28;20029;-70
2023/04/16 09:43:58;;;;;;;6.55;3.47;;;;;;;13.28;56.97;102360.09;5051221;28;20021;-70
2023/04/16 09:46:29;;;;;;;10.13;3.40;;;;;;;13.35;56.98;102350.25;5052206;28;20021;-71
2023/04/16 09:48:55;;;;;;;6.07;3.38;;;;;;;13.40;56.88;102358.66;5052300;28;20111;-71
2023/04/16 09:51:20;;;;;;;5.85;3.70;;;;;;;13.32;56.07;102356.84;5017750;28;20543;-70
2023/04/16 09:53:46;;;;;;;5.38;3.33;;;;;;;13.61;55.73;102368.84;5052578;28;20021;-70
2023/04/16 09:56:12;;;;;;;7.13;3.70;;;;;;;13.43;55.63;102360.16;5051265;28;20025;-70
2023/04/16 09:58:38;;;;;;;6.90;3.92;;;;;;;13.43;54.86;102363.72;5034092;28;20480;-71
2023/04/16 10:01:10;;;;;;;4.30;3.30;;;;;;;13.42;55.26;102369.31;5034283;28;20029;-71
2023/04/16 10:03:38;;;;;;;4.43;3.08;;;;;;;13.68;55.04;102361.66;5050816;28;20036;-71
2023/04/16 10:06:13;;;;;;;5.63;3.45;;;;;;;13.65;55.15;102366.59;5052054;28;20139;-71
2023/04/16 10:08:45;;;;;;;5.32;3.35;;;;;;;13.75;54.79;102362.63;5052079;28;20050;-71
2023/04/16 10:11:10;;;;;;;6.53;3.45;;;;;;;13.65;54.83;102363.91;5052351;28;20029;-71
2023/04/16 10:13:35;;;;;;;8.65;3.65;;;;;;;13.66;55.55;102362.88;5034135;28;20132;-70
2023/04/16 10:16:02;;;;;;;5.60;3.30;;;;;;;13.87;54.37;102365.72;5050865;28;20535;-71
2023/04/16 10:18:28;;;;;;;7.07;3.20;;;;;;;13.73;54.20;102361.13;5054949;28;20063;-70
2023/04/16 10:20:54;;;;;;;5.40;3.30;;;;;;;13.88;53.72;102363.88;5054027;28;20037;-68
2023/04/16 10:23:21;;;;;;;5.97;3.40;;;;;;;13.92;53.42;102365.19;5038258;28;20033;-69
2023/04/16 10:25:51;;;;;;;5.88;3.28;;;;;;;13.90;53.35;102367.22;5055937;28;20041;-69
2023/04/16 10:28:16;;;;;;;4.78;2.95;;;;;;;13.83;52.82;102359.81;5054229;28;20043;-70
2023/04/16 10:30:51;;;;;;;6.15;3.30;;;;;;;14.09;51.98;102359.41;5055841;28;20107;-70
2023/04/16 10:33:19;;;;;;;6.82;3.17;;;;;;;14.15;51.34;102368.69;5053983;28;20032;-69
2023/04/16 10:35:44;;;;;;;8.32;3.20;;;;;;;14.07;50.96;102364.19;5055038;28;20029;-70
2023/04/16 10:38:27;;;;;;;5.25;3.17;;;;;;;13.93;49.96;102364.16;5037192;28;20388;-69
2023/04/16 10:41:01;;;;;;;4.60;3.03;;;;;;;14.17;50.66;102361.22;5053442;28;20693;-69
2023/04/16 10:43:28;;;;;;;5.40;3.30;;;;;;;14.18;50.52;102356.66;5055117;28;20033;-70
2023/04/16 10:45:54;;;;;;;5.15;3.28;;;;;;;14.36;50.13;102354.41;5056274;28;20107;-70
2023/04/16 10:48:20;;;;;;;5.18;2.90;;;;;;;14.42;50.41;102367.19;5055162;28;20059;-70
2023/04/16 10:50:56;;;;;;;5.53;2.97;;;;;;;14.32;49.39;102361.22;5037264;28;20029;-70
2023/04/16 10:53:26;;;;;;;8.20;3.50;;;;;;;14.60;50.06;102361.44;5055243;28;20083;-70
2023/04/16 10:56:10;;;;;;;4.68;3.20;;;;;;;14.25;49.54;102322.38;5055278;28;20025;-72
2023/04/16 10:58:35;;;;;;;7.25;3.15;;;;;;;14.61;49.48;102359.59;5054100;28;20064;-72
2023/04/16 11:01:06;;;;;;;6.68;3.30;;;;;;;14.37;48.78;102358.81;5054019;28;20065;-71
2023/04/16 11:03:32;;;;;;;9.63;3.05;;;;;;;14.88;48.36;102358.06;5054907;28;20032;-70
2023/04/16 11:06:23;;;;;;;6.70;2.90;;;;;;;14.88;46.89;102363.47;5055567;28;20025;-71
2023/04/16 11:08:50;;;;;;;7.30;3.00;;;;;;;14.99;47.77;102349.41;5055207;28;20673;-71
2023/04/16 11:11:17;;;;;;;5.43;3.13;;;;;;;15.19;46.89;102342.34;5053722;28;20032;-71
2023/04/16 11:13:46;;;;;;;6.68;3.22;;;;;;;15.38;46.63;102356.31;5053828;28;20064;-72
2023/04/16 11:16:15;;;;;;;5.95;2.80;;;;;;;15.37;45.54;102358.19;5053807;28;20058;-71
2023/04/16 11:18:43;;;;;;;5.70;2.90;;;;;;;15.47;45.66;102361.44;5020253;28;20017;-71
2023/04/16 11:21:11;;;;;;;4.00;3.00;;;;;;;15.65;45.41;102368.25;5053751;28;20056;-71
2023/04/16 11:23:48;;;;;;;4.47;2.95;;;;;;;15.88;45.47;102349.91;5052242;28;20028;-71